sensor_id;sensor_type;location;lat;lon;timestamp;P1;durP1;ratioP1;P2;durP2;ratioP2
41875;SDS011;27555;50.808;4.402;2023-09-18T00:00:50;8.48;;;4.20;;
41875;SDS011;27555;50.808;4.402;2023-09-18T00:03:19;5.68;;;3.70;;
41875;SDS011;27555;50.808;4.402;2023-09-18T00:05:49;8.45;;;4.00;;
41875;SDS011;27555;50.808;4.402;2023-09-18T00:08:18;10.48;;;3.72;;
41875;SDS011;27555;50.808;4.402;2023-09-18T00:10:52;9.70;;;3.83;;
41875;SDS011;27555;50.808;4.402;2023-09-18T00:13:19;14.50;;;5.07;;
41875;SDS011;27555;50.808;4.402;2023-09-18T00:15:45;12.48;;;3.60;;
41875;SDS011;27555;50.808;4.402;2023-09-18T00:18:13;17.40;;;4.80;;
41875;SDS011;27555;50.808;4.402;2023-09-18T00:20:40;10.65;;;4.03;;
41875;SDS011;27555;50.808;4.402;2023-09-18T00:23:06;7.35;;;4.00;;
41875;SDS011;27555;50.808;4.402;2023-09-18T00:25:33;8.73;;;3.47;;
41875;SDS011;27555;50.808;4.402;2023-09-18T00:27:58;8.07;;;4.13;;
41875;SDS011;27555;50.808;4.402;2023-09-18T00:30:24;8.15;;;3.83;;
41875;SDS011;27555;50.808;4.402;2023-09-18T00:32:50;8.93;;;3.50;;
41875;SDS011;27555;50.808;4.402;2023-09-18T00:35:15;11.77;;;3.97;;
41875;SDS011;27555;50.808;4.402;2023-09-18T00:37:41;13.70;;;4.30;;
41875;SDS011;27555;50.808;4.402;2023-09-18T00:40:08;10.32;;;4.38;;
41875;SDS011;27555;50.808;4.402;2023-09-18T00:42:34;8.68;;;4.35;;
41875;SDS011;27555;50.808;4.402;2023-09-18T00:44:59;9.93;;;3.60;;
41875;SDS011;27555;50.808;4.402;2023-09-18T00:47:25;8.70;;;3.63;;
41875;SDS011;27555;50.808;4.402;2023-09-18T00:49:51;7.82;;;3.75;;
41875;SDS011;27555;50.808;4.402;2023-09-18T00:52:18;8.07;;;4.15;;
41875;SDS011;27555;50.808;4.402;2023-09-18T00:54:45;5.97;;;3.70;;
41875;SDS011;27555;50.808;4.402;2023-09-18T00:57:12;7.65;;;3.90;;
41875;SDS011;27555;50.808;4.402;2023-09-18T00:59:38;9.60;;;4.40;;
41875;SDS011;27555;50.808;4.402;2023-09-18T01:02:04;5.57;;;3.53;;
41875;SDS011;27555;50.808;4.402;2023-09-18T01:04:30;6.90;;;3.25;;
41875;SDS011;27555;50.808;4.402;2023-09-18T01:06:58;12.95;;;4.45;;
41875;SDS011;27555;50.808;4.402;2023-09-18T01:09:29;5.70;;;3.63;;
41875;SDS011;27555;50.808;4.402;2023-09-18T01:17:09;10.88;;;4.43;;
41875;SDS011;27555;50.808;4.402;2023-09-18T01:19:36;10.30;;;4.22;;
41875;SDS011;27555;50.808;4.402;2023-09-18T01:22:03;9.30;;;4.32;;
41875;SDS011;27555;50.808;4.402;2023-09-18T01:24:30;10.45;;;5.30;;
41875;SDS011;27555;50.808;4.402;2023-09-18T01:26:57;7.07;;;4.10;;
41875;SDS011;27555;50.808;4.402;2023-09-18T01:29:22;11.27;;;4.50;;
41875;SDS011;27555;50.808;4.402;2023-09-18T01:31:48;6.10;;;3.95;;
41875;SDS011;27555;50.808;4.402;2023-09-18T01:34:16;6.68;;;3.50;;
41875;SDS011;27555;50.808;4.402;2023-09-18T01:36:49;11.57;;;3.95;;
41875;SDS011;27555;50.808;4.402;2023-09-18T01:39:16;8.20;;;4.05;;
41875;SDS011;27555;50.808;4.402;2023-09-18T01:41:43;5.85;;;3.97;;
41875;SDS011;27555;50.808;4.402;2023-09-18T01:44:08;5.53;;;3.35;;
41875;SDS011;27555;50.808;4.402;2023-09-18T01:46:34;8.90;;;3.65;;
41875;SDS011;27555;50.808;4.402;2023-09-18T01:49:03;8.70;;;3.55;;
41875;SDS011;27555;50.808;4.402;2023-09-18T01:51:29;6.25;;;3.30;;
41875;SDS011;27555;50.808;4.402;2023-09-18T01:53:55;6.63;;;3.85;;
41875;SDS011;27555;50.808;4.402;2023-09-18T01:56:21;7.85;;;4.45;;
41875;SDS011;27555;50.808;4.402;2023-09-18T01:58:48;9.60;;;4.20;;
41875;SDS011;27555;50.808;4.402;2023-09-18T02:01:13;11.35;;;4.50;;
41875;SDS011;27555;50.808;4.402;2023-09-18T02:03:39;6.80;;;3.88;;
41875;SDS011;27555;50.808;4.402;2023-09-18T02:06:09;11.40;;;4.50;;
41875;SDS011;27555;50.808;4.402;2023-09-18T02:08:35;13.30;;;4.50;;
41875;SDS011;27555;50.808;4.402;2023-09-18T02:11:00;9.25;;;3.95;;
41875;SDS011;27555;50.808;4.402;2023-09-18T02:13:28;15.07;;;5.00;;
41875;SDS011;27555;50.808;4.402;2023-09-18T02:15:54;8.77;;;4.00;;
41875;SDS011;27555;50.808;4.402;2023-09-18T02:18:20;5.82;;;4.38;;
41875;SDS011;27555;50.808;4.402;2023-09-18T02:20:46;6.05;;;4.07;;
41875;SDS011;27555;50.808;4.402;2023-09-18T02:23:14;11.65;;;5.00;;
41875;SDS011;27555;50.808;4.402;2023-09-18T02:25:40;11.07;;;4.25;;
41875;SDS011;27555;50.808;4.402;2023-09-18T02:28:06;9.40;;;3.58;;
41875;SDS011;27555;50.808;4.402;2023-09-18T02:30:32;5.30;;;3.47;;
41875;SDS011;27555;50.808;4.402;2023-09-18T02:32:58;6.00;;;3.33;;
41875;SDS011;27555;50.808;4.402;2023-09-18T02:35:24;7.32;;;3.65;;
41875;SDS011;27555;50.808;4.402;2023-09-18T02:37:50;9.30;;;3.50;;
41875;SDS011;27555;50.808;4.402;2023-09-18T02:40:17;6.88;;;3.22;;
41875;SDS011;27555;50.808;4.402;2023-09-18T02:42:42;5.03;;;2.30;;
41875;SDS011;27555;50.808;4.402;2023-09-18T02:45:09;2.13;;;1.88;;
41875;SDS011;27555;50.808;4.402;2023-09-18T02:47:34;3.70;;;1.80;;
41875;SDS011;27555;50.808;4.402;2023-09-18T02:50:02;3.72;;;2.40;;
41875;SDS011;27555;50.808;4.402;2023-09-18T02:52:30;7.97;;;2.17;;
41875;SDS011;27555;50.808;4.402;2023-09-18T02:54:55;10.45;;;2.40;;
41875;SDS011;27555;50.808;4.402;2023-09-18T02:57:21;3.55;;;1.77;;
41875;SDS011;27555;50.808;4.402;2023-09-18T02:59:47;7.53;;;2.40;;
41875;SDS011;27555;50.808;4.402;2023-09-18T03:02:12;4.65;;;2.03;;
41875;SDS011;27555;50.808;4.402;2023-09-18T03:04:38;6.53;;;1.75;;
41875;SDS011;27555;50.808;4.402;2023-09-18T03:07:03;2.70;;;1.30;;
41875;SDS011;27555;50.808;4.402;2023-09-18T03:09:30;5.18;;;1.42;;
41875;SDS011;27555;50.808;4.402;2023-09-18T03:11:55;4.72;;;1.85;;
41875;SDS011;27555;50.808;4.402;2023-09-18T03:14:21;6.07;;;1.67;;
41875;SDS011;27555;50.808;4.402;2023-09-18T03:16:48;3.28;;;1.38;;
41875;SDS011;27555;50.808;4.402;2023-09-18T03:19:15;2.67;;;1.20;;
41875;SDS011;27555;50.808;4.402;2023-09-18T03:21:41;10.15;;;1.70;;
41875;SDS011;27555;50.808;4.402;2023-09-18T03:24:06;2.22;;;1.20;;
41875;SDS011;27555;50.808;4.402;2023-09-18T03:26:32;2.65;;;1.63;;
41875;SDS011;27555;50.808;4.402;2023-09-18T03:28:58;4.25;;;1.40;;
41875;SDS011;27555;50.808;4.402;2023-09-18T03:31:23;7.15;;;2.15;;
41875;SDS011;27555;50.808;4.402;2023-09-18T03:33:49;4.15;;;1.95;;
41875;SDS011;27555;50.808;4.402;2023-09-18T03:36:14;6.63;;;2.72;;
41875;SDS011;27555;50.808;4.402;2023-09-18T03:38:40;7.43;;;2.42;;
41875;SDS011;27555;50.808;4.402;2023-09-18T03:41:07;4.20;;;2.13;;
41875;SDS011;27555;50.808;4.402;2023-09-18T03:43:32;5.13;;;2.03;;
41875;SDS011;27555;50.808;4.402;2023-09-18T03:46:05;7.30;;;2.55;;
41875;SDS011;27555;50.808;4.402;2023-09-18T03:48:31;5.28;;;2.17;;
41875;SDS011;27555;50.808;4.402;2023-09-18T03:51:02;4.90;;;2.15;;
41875;SDS011;27555;50.808;4.402;2023-09-18T03:53:35;4.38;;;1.73;;
41875;SDS011;27555;50.808;4.402;2023-09-18T03:56:01;5.25;;;1.75;;
41875;SDS011;27555;50.808;4.402;2023-09-18T03:58:26;6.68;;;1.90;;
41875;SDS011;27555;50.808;4.402;2023-09-18T04:00:52;7.35;;;2.15;;
41875;SDS011;27555;50.808;4.402;2023-09-18T04:03:18;5.10;;;2.08;;
41875;SDS011;27555;50.808;4.402;2023-09-18T04:05:44;4.25;;;2.22;;
41875;SDS011;27555;50.808;4.402;2023-09-18T04:08:10;4.90;;;1.40;;
41875;SDS011;27555;50.808;4.402;2023-09-18T04:10:36;4.18;;;1.80;;
41875;SDS011;27555;50.808;4.402;2023-09-18T04:13:02;4.40;;;1.60;;
41875;SDS011;27555;50.808;4.402;2023-09-18T04:15:27;3.35;;;1.88;;
41875;SDS011;27555;50.808;4.402;2023-09-18T04:17:55;6.13;;;1.92;;
41875;SDS011;27555;50.808;4.402;2023-09-18T04:20:21;3.53;;;1.60;;
41875;SDS011;27555;50.808;4.402;2023-09-18T04:22:48;6.32;;;1.38;;
41875;SDS011;27555;50.808;4.402;2023-09-18T04:25:47;4.63;;;1.47;;
41875;SDS011;27555;50.808;4.402;2023-09-18T04:28:14;4.60;;;1.70;;
41875;SDS011;27555;50.808;4.402;2023-09-18T04:30:40;3.58;;;1.73;;
41875;SDS011;27555;50.808;4.402;2023-09-18T04:33:06;5.60;;;1.40;;
41875;SDS011;27555;50.808;4.402;2023-09-18T04:35:31;6.43;;;1.38;;
41875;SDS011;27555;50.808;4.402;2023-09-18T04:37:58;11.45;;;1.67;;
41875;SDS011;27555;50.808;4.402;2023-09-18T04:40:24;5.55;;;1.42;;
41875;SDS011;27555;50.808;4.402;2023-09-18T04:42:51;7.47;;;1.25;;
41875;SDS011;27555;50.808;4.402;2023-09-18T04:45:17;3.85;;;1.65;;
41875;SDS011;27555;50.808;4.402;2023-09-18T04:47:43;3.13;;;1.25;;
41875;SDS011;27555;50.808;4.402;2023-09-18T04:50:09;2.22;;;1.35;;
41875;SDS011;27555;50.808;4.402;2023-09-18T04:52:38;1.80;;;1.17;;
41875;SDS011;27555;50.808;4.402;2023-09-18T04:55:05;3.72;;;1.10;;
41875;SDS011;27555;50.808;4.402;2023-09-18T04:57:31;4.18;;;0.98;;
41875;SDS011;27555;50.808;4.402;2023-09-18T04:59:57;11.35;;;2.03;;
41875;SDS011;27555;50.808;4.402;2023-09-18T05:02:23;3.83;;;1.02;;
41875;SDS011;27555;50.808;4.402;2023-09-18T05:04:50;5.72;;;1.65;;
41875;SDS011;27555;50.808;4.402;2023-09-18T05:07:16;2.38;;;1.00;;
41875;SDS011;27555;50.808;4.402;2023-09-18T05:09:42;13.35;;;1.88;;
41875;SDS011;27555;50.808;4.402;2023-09-18T05:12:08;3.50;;;1.08;;
41875;SDS011;27555;50.808;4.402;2023-09-18T05:14:39;3.63;;;1.10;;
41875;SDS011;27555;50.808;4.402;2023-09-18T05:17:05;2.80;;;0.98;;
41875;SDS011;27555;50.808;4.402;2023-09-18T05:19:31;7.10;;;1.52;;
41875;SDS011;27555;50.808;4.402;2023-09-18T05:21:57;3.30;;;1.52;;
41875;SDS011;27555;50.808;4.402;2023-09-18T05:24:22;8.40;;;1.45;;
41875;SDS011;27555;50.808;4.402;2023-09-18T05:26:52;5.75;;;0.80;;
41875;SDS011;27555;50.808;4.402;2023-09-18T05:29:18;2.38;;;1.23;;
41875;SDS011;27555;50.808;4.402;2023-09-18T05:31:44;3.75;;;1.10;;
41875;SDS011;27555;50.808;4.402;2023-09-18T05:34:10;4.57;;;1.33;;
41875;SDS011;27555;50.808;4.402;2023-09-18T05:36:37;2.72;;;0.85;;
41875;SDS011;27555;50.808;4.402;2023-09-18T05:39:02;2.00;;;0.98;;
41875;SDS011;27555;50.808;4.402;2023-09-18T05:41:28;2.03;;;1.10;;
41875;SDS011;27555;50.808;4.402;2023-09-18T05:43:57;2.90;;;1.10;;
41875;SDS011;27555;50.808;4.402;2023-09-18T05:46:22;4.80;;;1.27;;
41875;SDS011;27555;50.808;4.402;2023-09-18T05:48:48;2.70;;;1.23;;
41875;SDS011;27555;50.808;4.402;2023-09-18T05:51:14;1.95;;;0.93;;
41875;SDS011;27555;50.808;4.402;2023-09-18T05:53:40;2.53;;;0.80;;
41875;SDS011;27555;50.808;4.402;2023-09-18T05:56:05;3.03;;;0.93;;
41875;SDS011;27555;50.808;4.402;2023-09-18T05:58:31;2.75;;;1.30;;
41875;SDS011;27555;50.808;4.402;2023-09-18T06:01:00;3.15;;;1.30;;
41875;SDS011;27555;50.808;4.402;2023-09-18T06:03:28;11.98;;;1.35;;
41875;SDS011;27555;50.808;4.402;2023-09-18T06:06:00;7.72;;;0.90;;
41875;SDS011;27555;50.808;4.402;2023-09-18T06:08:29;4.00;;;1.10;;
41875;SDS011;27555;50.808;4.402;2023-09-18T06:10:55;4.60;;;1.30;;
41875;SDS011;27555;50.808;4.402;2023-09-18T06:13:21;4.95;;;1.08;;
41875;SDS011;27555;50.808;4.402;2023-09-18T06:15:48;1.83;;;0.98;;
41875;SDS011;27555;50.808;4.402;2023-09-18T06:18:15;2.50;;;1.30;;
41875;SDS011;27555;50.808;4.402;2023-09-18T06:20:41;2.75;;;1.02;;
41875;SDS011;27555;50.808;4.402;2023-09-18T06:23:08;9.52;;;1.45;;
41875;SDS011;27555;50.808;4.402;2023-09-18T06:25:34;5.68;;;1.10;;
41875;SDS011;27555;50.808;4.402;2023-09-18T06:27:59;4.28;;;1.63;;
41875;SDS011;27555;50.808;4.402;2023-09-18T06:30:27;6.20;;;1.30;;
41875;SDS011;27555;50.808;4.402;2023-09-18T06:32:56;3.42;;;1.27;;
41875;SDS011;27555;50.808;4.402;2023-09-18T06:35:21;1.92;;;1.20;;
41875;SDS011;27555;50.808;4.402;2023-09-18T06:37:47;4.00;;;1.20;;
41875;SDS011;27555;50.808;4.402;2023-09-18T06:40:13;3.33;;;1.00;;
41875;SDS011;27555;50.808;4.402;2023-09-18T06:42:39;4.10;;;1.58;;
41875;SDS011;27555;50.808;4.402;2023-09-18T06:45:05;3.95;;;1.10;;
41875;SDS011;27555;50.808;4.402;2023-09-18T06:47:32;2.17;;;1.30;;
41875;SDS011;27555;50.808;4.402;2023-09-18T06:49:58;4.65;;;1.38;;
41875;SDS011;27555;50.808;4.402;2023-09-18T06:52:25;3.92;;;1.70;;
41875;SDS011;27555;50.808;4.402;2023-09-18T06:54:51;9.30;;;1.77;;
41875;SDS011;27555;50.808;4.402;2023-09-18T06:57:17;4.70;;;1.83;;
41875;SDS011;27555;50.808;4.402;2023-09-18T06:59:44;10.05;;;1.80;;
41875;SDS011;27555;50.808;4.402;2023-09-18T07:02:10;3.25;;;1.45;;
41875;SDS011;27555;50.808;4.402;2023-09-18T07:04:39;2.97;;;1.27;;
41875;SDS011;27555;50.808;4.402;2023-09-18T07:07:09;5.88;;;1.50;;
41875;SDS011;27555;50.808;4.402;2023-09-18T07:09:39;7.05;;;1.80;;
41875;SDS011;27555;50.808;4.402;2023-09-18T07:12:06;6.45;;;1.92;;
41875;SDS011;27555;50.808;4.402;2023-09-18T07:14:32;5.55;;;1.40;;
41875;SDS011;27555;50.808;4.402;2023-09-18T07:16:58;3.33;;;1.38;;
41875;SDS011;27555;50.808;4.402;2023-09-18T07:19:25;8.25;;;1.50;;
41875;SDS011;27555;50.808;4.402;2023-09-18T07:21:51;6.38;;;1.70;;
41875;SDS011;27555;50.808;4.402;2023-09-18T07:24:17;11.95;;;2.78;;
41875;SDS011;27555;50.808;4.402;2023-09-18T07:26:46;3.60;;;1.38;;
41875;SDS011;27555;50.808;4.402;2023-09-18T07:29:14;2.03;;;1.40;;
41875;SDS011;27555;50.808;4.402;2023-09-18T07:31:43;5.05;;;1.90;;
41875;SDS011;27555;50.808;4.402;2023-09-18T07:34:09;4.57;;;1.60;;
41875;SDS011;27555;50.808;4.402;2023-09-18T07:36:35;4.55;;;1.23;;
41875;SDS011;27555;50.808;4.402;2023-09-18T07:39:02;7.30;;;1.30;;
41875;SDS011;27555;50.808;4.402;2023-09-18T07:41:29;6.43;;;1.40;;
41875;SDS011;27555;50.808;4.402;2023-09-18T07:43:55;4.05;;;1.55;;
41875;SDS011;27555;50.808;4.402;2023-09-18T07:46:23;2.83;;;0.95;;
41875;SDS011;27555;50.808;4.402;2023-09-18T07:48:49;8.45;;;1.50;;
41875;SDS011;27555;50.808;4.402;2023-09-18T07:51:14;1.25;;;1.00;;
41875;SDS011;27555;50.808;4.402;2023-09-18T07:53:41;2.85;;;1.30;;
41875;SDS011;27555;50.808;4.402;2023-09-18T07:56:07;7.78;;;1.20;;
41875;SDS011;27555;50.808;4.402;2023-09-18T07:58:33;5.95;;;1.27;;
41875;SDS011;27555;50.808;4.402;2023-09-18T08:01:03;3.22;;;1.05;;
41875;SDS011;27555;50.808;4.402;2023-09-18T08:03:33;6.13;;;1.50;;
41875;SDS011;27555;50.808;4.402;2023-09-18T08:05:59;2.67;;;1.20;;
41875;SDS011;27555;50.808;4.402;2023-09-18T08:08:25;8.27;;;1.58;;
41875;SDS011;27555;50.808;4.402;2023-09-18T08:10:51;7.10;;;2.08;;
41875;SDS011;27555;50.808;4.402;2023-09-18T08:13:17;3.97;;;1.52;;
41875;SDS011;27555;50.808;4.402;2023-09-18T08:15:44;4.47;;;1.40;;
41875;SDS011;27555;50.808;4.402;2023-09-18T08:18:10;10.98;;;1.88;;
41875;SDS011;27555;50.808;4.402;2023-09-18T08:20:40;10.77;;;1.75;;
41875;SDS011;27555;50.808;4.402;2023-09-18T08:23:06;15.18;;;1.75;;
41875;SDS011;27555;50.808;4.402;2023-09-18T08:25:32;4.60;;;1.63;;
41875;SDS011;27555;50.808;4.402;2023-09-18T08:27:57;6.57;;;1.48;;
41875;SDS011;27555;50.808;4.402;2023-09-18T08:30:23;6.30;;;1.42;;
41875;SDS011;27555;50.808;4.402;2023-09-18T08:32:49;4.65;;;1.77;;
41875;SDS011;27555;50.808;4.402;2023-09-18T08:35:15;3.33;;;1.48;;
41875;SDS011;27555;50.808;4.402;2023-09-18T08:37:41;6.13;;;1.98;;
41875;SDS011;27555;50.808;4.402;2023-09-18T08:40:07;8.32;;;1.92;;
41875;SDS011;27555;50.808;4.402;2023-09-18T08:42:39;7.63;;;1.80;;
41875;SDS011;27555;50.808;4.402;2023-09-18T08:45:14;3.90;;;1.77;;
41875;SDS011;27555;50.808;4.402;2023-09-18T08:47:47;4.05;;;1.77;;
41875;SDS011;27555;50.808;4.402;2023-09-18T08:50:14;4.40;;;1.95;;
41875;SDS011;27555;50.808;4.402;2023-09-18T08:52:40;4.20;;;1.63;;
41875;SDS011;27555;50.808;4.402;2023-09-18T08:55:08;9.50;;;3.35;;
41875;SDS011;27555;50.808;4.402;2023-09-18T08:57:34;7.75;;;1.95;;
41875;SDS011;27555;50.808;4.402;2023-09-18T09:00:01;5.60;;;1.70;;
41875;SDS011;27555;50.808;4.402;2023-09-18T09:02:32;3.67;;;1.70;;
41875;SDS011;27555;50.808;4.402;2023-09-18T09:05:00;5.20;;;2.57;;
41875;SDS011;27555;50.808;4.402;2023-09-18T09:07:26;5.85;;;2.08;;
41875;SDS011;27555;50.808;4.402;2023-09-18T09:09:55;5.85;;;1.65;;
41875;SDS011;27555;50.808;4.402;2023-09-18T09:15:43;5.97;;;2.30;;
41875;SDS011;27555;50.808;4.402;2023-09-18T09:18:13;6.90;;;2.53;;
41875;SDS011;27555;50.808;4.402;2023-09-18T09:20:52;5.03;;;2.35;;
41875;SDS011;27555;50.808;4.402;2023-09-18T09:23:18;6.13;;;1.80;;
41875;SDS011;27555;50.808;4.402;2023-09-18T09:25:44;3.83;;;2.22;;
41875;SDS011;27555;50.808;4.402;2023-09-18T09:28:10;10.40;;;2.40;;
41875;SDS011;27555;50.808;4.402;2023-09-18T09:30:37;8.32;;;2.17;;
41875;SDS011;27555;50.808;4.402;2023-09-18T09:33:03;5.07;;;2.35;;
41875;SDS011;27555;50.808;4.402;2023-09-18T09:35:33;3.10;;;1.98;;
41875;SDS011;27555;50.808;4.402;2023-09-18T09:38:08;8.68;;;1.98;;
41875;SDS011;27555;50.808;4.402;2023-09-18T09:40:34;5.75;;;2.20;;
41875;SDS011;27555;50.808;4.402;2023-09-18T09:43:03;6.53;;;2.03;;
41875;SDS011;27555;50.808;4.402;2023-09-18T09:45:29;7.63;;;2.10;;
41875;SDS011;27555;50.808;4.402;2023-09-18T09:48:00;8.55;;;1.75;;
41875;SDS011;27555;50.808;4.402;2023-09-18T09:50:27;6.13;;;1.77;;
41875;SDS011;27555;50.808;4.402;2023-09-18T09:52:54;6.50;;;2.28;;
41875;SDS011;27555;50.808;4.402;2023-09-18T09:55:30;4.28;;;2.40;;
41875;SDS011;27555;50.808;4.402;2023-09-18T09:57:58;7.13;;;2.00;;
41875;SDS011;27555;50.808;4.402;2023-09-18T10:00:32;8.10;;;2.00;;
41875;SDS011;27555;50.808;4.402;2023-09-18T10:03:09;7.88;;;2.28;;
41875;SDS011;27555;50.808;4.402;2023-09-18T10:05:37;5.07;;;2.10;;
41875;SDS011;27555;50.808;4.402;2023-09-18T10:08:08;4.97;;;2.20;;
41875;SDS011;27555;50.808;4.402;2023-09-18T10:10:51;6.03;;;2.13;;
41875;SDS011;27555;50.808;4.402;2023-09-18T10:13:19;6.18;;;1.77;;
41875;SDS011;27555;50.808;4.402;2023-09-18T10:15:51;3.95;;;1.45;;
41875;SDS011;27555;50.808;4.402;2023-09-18T10:23:59;6.30;;;2.17;;
41875;SDS011;27555;50.808;4.402;2023-09-18T10:26:39;6.03;;;1.67;;
41875;SDS011;27555;50.808;4.402;2023-09-18T10:29:12;6.50;;;1.70;;
41875;SDS011;27555;50.808;4.402;2023-09-18T10:31:40;7.22;;;1.95;;
41875;SDS011;27555;50.808;4.402;2023-09-18T10:34:09;7.68;;;2.25;;
41875;SDS011;27555;50.808;4.402;2023-09-18T10:36:37;6.97;;;1.80;;
41875;SDS011;27555;50.808;4.402;2023-09-18T10:39:06;3.57;;;1.70;;
41875;SDS011;27555;50.808;4.402;2023-09-18T10:41:37;3.70;;;2.20;;
41875;SDS011;27555;50.808;4.402;2023-09-18T10:44:04;2.97;;;1.65;;
41875;SDS011;27555;50.808;4.402;2023-09-18T10:46:31;4.03;;;1.50;;
41875;SDS011;27555;50.808;4.402;2023-09-18T10:48:58;4.35;;;1.88;;
41875;SDS011;27555;50.808;4.402;2023-09-18T10:51:25;4.72;;;1.83;;
41875;SDS011;27555;50.808;4.402;2023-09-18T10:53:52;10.63;;;2.75;;
41875;SDS011;27555;50.808;4.402;2023-09-18T10:56:20;7.63;;;2.25;;
41875;SDS011;27555;50.808;4.402;2023-09-18T10:58:46;5.47;;;1.33;;
41875;SDS011;27555;50.808;4.402;2023-09-18T11:01:20;6.13;;;1.60;;
41875;SDS011;27555;50.808;4.402;2023-09-18T11:03:49;4.13;;;1.60;;
41875;SDS011;27555;50.808;4.402;2023-09-18T11:06:15;5.28;;;1.50;;
41875;SDS011;27555;50.808;4.402;2023-09-18T11:08:45;6.32;;;1.38;;
41875;SDS011;27555;50.808;4.402;2023-09-18T11:11:12;5.45;;;1.63;;
41875;SDS011;27555;50.808;4.402;2023-09-18T11:13:46;5.53;;;1.73;;
41875;SDS011;27555;50.808;4.402;2023-09-18T11:16:16;6.25;;;1.88;;
41875;SDS011;27555;50.808;4.402;2023-09-18T11:18:51;5.70;;;1.55;;
41875;SDS011;27555;50.808;4.402;2023-09-18T11:21:28;11.98;;;1.77;;
41875;SDS011;27555;50.808;4.402;2023-09-18T11:26:35;8.43;;;1.90;;
41875;SDS011;27555;50.808;4.402;2023-09-18T11:29:03;12.55;;;2.05;;
41875;SDS011;27555;50.808;4.402;2023-09-18T11:31:43;4.18;;;1.58;;
41875;SDS011;27555;50.808;4.402;2023-09-18T11:34:23;7.32;;;1.70;;
41875;SDS011;27555;50.808;4.402;2023-09-18T11:36:57;4.55;;;1.38;;
41875;SDS011;27555;50.808;4.402;2023-09-18T11:39:38;3.92;;;1.40;;
41875;SDS011;27555;50.808;4.402;2023-09-18T11:42:21;8.60;;;1.85;;
41875;SDS011;27555;50.808;4.402;2023-09-18T11:44:47;3.05;;;1.52;;
41875;SDS011;27555;50.808;4.402;2023-09-18T11:47:18;5.18;;;1.35;;
41875;SDS011;27555;50.808;4.402;2023-09-18T11:49:52;4.03;;;1.65;;
41875;SDS011;27555;50.808;4.402;2023-09-18T11:52:23;2.88;;;1.20;;
41875;SDS011;27555;50.808;4.402;2023-09-18T11:54:55;11.15;;;1.25;;
41875;SDS011;27555;50.808;4.402;2023-09-18T11:57:22;2.20;;;1.30;;
41875;SDS011;27555;50.808;4.402;2023-09-18T11:59:50;2.67;;;1.10;;
41875;SDS011;27555;50.808;4.402;2023-09-18T12:02:37;8.32;;;1.20;;
41875;SDS011;27555;50.808;4.402;2023-09-18T12:05:15;5.07;;;1.30;;
41875;SDS011;27555;50.808;4.402;2023-09-18T12:07:42;5.95;;;1.30;;
41875;SDS011;27555;50.808;4.402;2023-09-18T12:10:10;3.20;;;1.13;;
41875;SDS011;27555;50.808;4.402;2023-09-18T12:12:43;2.97;;;1.33;;
41875;SDS011;27555;50.808;4.402;2023-09-18T12:15:13;2.47;;;1.15;;
41875;SDS011;27555;50.808;4.402;2023-09-18T12:17:40;5.43;;;1.10;;
41875;SDS011;27555;50.808;4.402;2023-09-18T12:20:06;4.05;;;1.35;;
41875;SDS011;27555;50.808;4.402;2023-09-18T12:22:32;4.15;;;1.10;;
41875;SDS011;27555;50.808;4.402;2023-09-18T12:25:10;6.75;;;1.50;;
41875;SDS011;27555;50.808;4.402;2023-09-18T12:27:36;2.55;;;1.10;;
41875;SDS011;27555;50.808;4.402;2023-09-18T12:30:03;5.57;;;1.20;;
41875;SDS011;27555;50.808;4.402;2023-09-18T12:32:30;3.25;;;1.23;;
41875;SDS011;27555;50.808;4.402;2023-09-18T12:34:57;2.63;;;1.45;;
41875;SDS011;27555;50.808;4.402;2023-09-18T12:37:23;3.55;;;1.17;;
41875;SDS011;27555;50.808;4.402;2023-09-18T12:39:50;5.10;;;1.35;;
41875;SDS011;27555;50.808;4.402;2023-09-18T12:42:17;3.92;;;1.10;;
41875;SDS011;27555;50.808;4.402;2023-09-18T12:44:49;5.40;;;1.30;;
41875;SDS011;27555;50.808;4.402;2023-09-18T12:47:15;7.50;;;1.13;;
41875;SDS011;27555;50.808;4.402;2023-09-18T12:49:41;2.78;;;1.10;;
41875;SDS011;27555;50.808;4.402;2023-09-18T12:52:07;6.30;;;1.10;;
41875;SDS011;27555;50.808;4.402;2023-09-18T12:54:45;4.30;;;1.15;;
41875;SDS011;27555;50.808;4.402;2023-09-18T12:57:17;7.70;;;1.25;;
41875;SDS011;27555;50.808;4.402;2023-09-18T12:59:43;4.75;;;1.30;;
41875;SDS011;27555;50.808;4.402;2023-09-18T13:02:09;16.85;;;1.23;;
41875;SDS011;27555;50.808;4.402;2023-09-18T13:04:38;8.18;;;1.38;;
41875;SDS011;27555;50.808;4.402;2023-09-18T13:07:08;2.05;;;0.77;;
41875;SDS011;27555;50.808;4.402;2023-09-18T13:09:39;4.22;;;0.93;;
41875;SDS011;27555;50.808;4.402;2023-09-18T13:12:05;4.68;;;1.00;;
41875;SDS011;27555;50.808;4.402;2023-09-18T13:20:21;5.82;;;1.15;;
41875;SDS011;27555;50.808;4.402;2023-09-18T13:22:52;5.82;;;1.23;;
41875;SDS011;27555;50.808;4.402;2023-09-18T13:25:21;6.03;;;1.05;;
41875;SDS011;27555;50.808;4.402;2023-09-18T13:27:48;5.53;;;1.50;;
41875;SDS011;27555;50.808;4.402;2023-09-18T13:30:18;6.20;;;1.10;;
41875;SDS011;27555;50.808;4.402;2023-09-18T13:32:45;7.85;;;1.83;;
41875;SDS011;27555;50.808;4.402;2023-09-18T13:35:13;2.00;;;1.00;;
41875;SDS011;27555;50.808;4.402;2023-09-18T13:37:40;3.70;;;1.30;;
41875;SDS011;27555;50.808;4.402;2023-09-18T13:40:06;2.55;;;1.38;;
41875;SDS011;27555;50.808;4.402;2023-09-18T13:42:33;3.60;;;1.15;;
41875;SDS011;27555;50.808;4.402;2023-09-18T13:45:00;6.40;;;1.08;;
41875;SDS011;27555;50.808;4.402;2023-09-18T13:47:27;4.75;;;1.15;;
41875;SDS011;27555;50.808;4.402;2023-09-18T13:49:53;4.05;;;1.85;;
41875;SDS011;27555;50.808;4.402;2023-09-18T13:52:22;9.02;;;1.60;;
41875;SDS011;27555;50.808;4.402;2023-09-18T13:54:48;2.50;;;1.00;;
41875;SDS011;27555;50.808;4.402;2023-09-18T13:57:16;4.63;;;1.73;;
41875;SDS011;27555;50.808;4.402;2023-09-18T13:59:46;3.85;;;0.88;;
41875;SDS011;27555;50.808;4.402;2023-09-18T14:02:13;8.05;;;0.93;;
41875;SDS011;27555;50.808;4.402;2023-09-18T14:04:39;5.60;;;1.10;;
41875;SDS011;27555;50.808;4.402;2023-09-18T14:07:06;2.33;;;0.85;;
41875;SDS011;27555;50.808;4.402;2023-09-18T14:09:33;4.85;;;1.08;;
41875;SDS011;27555;50.808;4.402;2023-09-18T14:11:59;4.78;;;0.98;;
41875;SDS011;27555;50.808;4.402;2023-09-18T14:14:25;4.15;;;1.15;;
41875;SDS011;27555;50.808;4.402;2023-09-18T14:16:51;3.95;;;1.25;;
41875;SDS011;27555;50.808;4.402;2023-09-18T14:19:17;2.53;;;1.15;;
41875;SDS011;27555;50.808;4.402;2023-09-18T14:21:43;8.45;;;1.27;;
41875;SDS011;27555;50.808;4.402;2023-09-18T14:24:09;7.57;;;1.08;;
41875;SDS011;27555;50.808;4.402;2023-09-18T14:26:35;3.15;;;1.20;;
41875;SDS011;27555;50.808;4.402;2023-09-18T14:29:08;2.95;;;1.20;;
41875;SDS011;27555;50.808;4.402;2023-09-18T14:31:38;3.15;;;1.02;;
41875;SDS011;27555;50.808;4.402;2023-09-18T14:34:04;6.25;;;1.17;;
41875;SDS011;27555;50.808;4.402;2023-09-18T14:36:33;1.33;;;0.83;;
41875;SDS011;27555;50.808;4.402;2023-09-18T14:39:00;2.75;;;1.20;;
41875;SDS011;27555;50.808;4.402;2023-09-18T14:41:27;4.53;;;1.30;;
41875;SDS011;27555;50.808;4.402;2023-09-18T14:43:52;6.72;;;1.10;;
41875;SDS011;27555;50.808;4.402;2023-09-18T14:46:18;4.03;;;1.33;;
41875;SDS011;27555;50.808;4.402;2023-09-18T14:48:45;5.10;;;1.55;;
41875;SDS011;27555;50.808;4.402;2023-09-18T14:51:11;5.75;;;1.60;;
41875;SDS011;27555;50.808;4.402;2023-09-18T14:53:37;3.72;;;1.40;;
41875;SDS011;27555;50.808;4.402;2023-09-18T14:56:03;2.63;;;1.15;;
41875;SDS011;27555;50.808;4.402;2023-09-18T14:58:29;3.83;;;1.30;;
41875;SDS011;27555;50.808;4.402;2023-09-18T15:00:56;3.90;;;1.23;;
41875;SDS011;27555;50.808;4.402;2023-09-18T15:03:22;2.38;;;1.63;;
41875;SDS011;27555;50.808;4.402;2023-09-18T15:05:51;4.50;;;1.58;;
41875;SDS011;27555;50.808;4.402;2023-09-18T15:08:18;5.72;;;1.70;;
41875;SDS011;27555;50.808;4.402;2023-09-18T15:10:47;4.50;;;1.48;;